Time;durP1;ratioP1;P1;durP2;ratioP2;P2;SDS_P1;SDS_P2;PMS_P1;PMS_P2;Temp;Humidity;BMP_temperature;BMP_pressure;BME280_temperature;BME280_humidity;BME280_pressure;Samples;Min_cycle;Max_cycle;Signal;HPM_P1;HPM_P2
2021/06/15 00:00:44;;;;;;;5.60;3.03;;;;;;;23.71;46.10;102143.91;4980232;28;20085;-87
2021/06/15 00:03:10;;;;;;;4.68;2.65;;;;;;;23.72;46.00;102143.88;4979909;28;20050;-86
2021/06/15 00:05:35;;;;;;;10.23;2.60;;;;;;;23.71;46.20;102136.88;4996223;28;20026;-85
2021/06/15 00:08:01;;;;;;;6.30;2.70;;;;;;;23.68;45.84;102136.94;4979907;28;20386;-86
2021/06/15 00:10:27;;;;;;;4.70;2.53;;;;;;;23.69;46.10;102140.41;4996283;28;20057;-86
2021/06/15 00:12:54;;;;;;;5.65;2.53;;;;;;;23.70;46.04;102144.81;4996208;28;20026;-86
2021/06/15 00:15:21;;;;;;;3.80;2.50;;;;;;;23.69;46.06;102143.94;4997522;28;20041;-85
2021/06/15 00:17:47;;;;;;;5.32;2.45;;;;;;;23.70;46.34;102145.66;5003621;28;20027;-85
2021/06/15 00:20:14;;;;;;;6.43;2.42;;;;;;;23.69;46.18;102137.78;4985349;28;20430;-85
2021/06/15 00:22:40;;;;;;;6.43;2.40;;;;;;;23.69;46.03;102133.44;4997254;28;20417;-85
2021/06/15 00:25:08;;;;;;;9.23;2.90;;;;;;;23.70;46.21;102131.66;4997666;28;20521;-85
2021/06/15 00:27:33;;;;;;;5.50;2.80;;;;;;;23.68;45.99;102136.94;4997456;28;20030;-86
2021/06/15 00:29:58;;;;;;;4.60;2.35;;;;;;;23.68;45.92;102146.59;4996083;28;20026;-85
2021/06/15 00:32:24;;;;;;;6.45;2.50;;;;;;;23.70;46.04;102142.16;4979621;28;20153;-86
2021/06/15 00:34:50;;;;;;;6.38;2.88;;;;;;;23.67;45.91;102135.22;4979491;28;20036;-85
2021/06/15 00:37:16;;;;;;;8.77;2.65;;;;;;;23.68;45.83;102138.69;4995684;28;20031;-85
2021/06/15 00:39:41;;;;;;;5.43;2.30;;;;;;;23.69;46.20;102141.31;4995639;28;20401;-86
2021/06/15 00:42:07;;;;;;;4.60;2.25;;;;;;;23.69;45.65;102145.69;4995453;28;20041;-85
2021/06/15 00:44:36;;;;;;;5.72;2.20;;;;;;;23.69;46.13;102150.94;4995526;28;20026;-86
2021/06/15 00:47:03;;;;;;;5.28;2.13;;;;;;;23.68;45.89;102147.44;4978910;28;20038;-85
2021/06/15 00:49:32;;;;;;;4.60;2.30;;;;;;;23.67;45.98;102144.81;4996989;28;20030;-86
2021/06/15 00:51:58;;;;;;;5.20;2.58;;;;;;;23.64;45.71;102148.38;4995452;28;20023;-86
2021/06/15 00:54:24;;;;;;;5.22;2.40;;;;;;;23.64;45.44;102158.88;4996752;28;20023;-87
2021/06/15 00:56:50;;;;;;;6.72;2.20;;;;;;;23.66;45.49;102164.13;4996943;28;20027;-86
2021/06/15 00:59:15;;;;;;;3.75;2.10;;;;;;;23.65;45.62;102170.25;4995490;28;20042;-87
2021/06/15 01:09:09;;;;;;;3.58;2.30;;;;;;;23.65;45.70;102183.41;4973946;28;20053;-86
2021/06/15 01:11:41;;;;;;;4.28;1.98;;;;;;;23.65;45.45;102191.28;4975892;28;20131;-86
2021/06/15 01:14:25;;;;;;;5.22;2.35;;;;;;;23.64;45.39;102194.81;4975878;28;20188;-87
2021/06/15 01:16:57;;;;;;;4.03;2.00;;;;;;;23.62;45.67;102193.06;4977322;28;20031;-87
2021/06/15 01:19:42;;;;;;;4.85;2.00;;;;;;;23.62;45.24;102193.06;4975530;28;20031;-87
2021/06/15 01:22:29;;;;;;;5.38;2.20;;;;;;;23.62;44.89;102187.81;4976978;28;20027;-87
2021/06/15 01:25:13;;;;;;;3.80;1.95;;;;;;;23.61;45.12;102182.59;4975805;28;20373;-87
2021/06/15 01:28:05;;;;;;;5.57;2.00;;;;;;;23.62;45.08;102181.69;4975506;28;20054;-88
2021/06/15 01:30:43;;;;;;;5.18;2.10;;;;;;;23.61;45.15;102186.09;4976004;28;20023;-87
2021/06/15 01:33:11;;;;;;;2.70;1.73;;;;;;;23.60;44.87;102184.34;4977139;28;20023;-87
2021/06/15 01:35:37;;;;;;;4.60;2.15;;;;;;;23.60;44.88;102186.09;4945025;28;20034;-87
2021/06/15 01:38:11;;;;;;;4.75;1.98;;;;;;;23.61;44.98;102185.22;4976031;28;20482;-87
2021/06/15 01:40:50;;;;;;;6.13;1.83;;;;;;;23.61;45.24;102182.59;4975732;28;20110;-87
2021/06/15 01:43:27;;;;;;;4.40;1.77;;;;;;;23.60;44.88;102181.72;4978822;28;20027;-88
2021/06/15 01:45:55;;;;;;;6.95;2.60;;;;;;;23.58;44.63;102183.50;4988308;28;20027;-87
2021/06/15 01:48:33;;;;;;;5.95;2.22;;;;;;;23.57;44.53;102186.16;4984336;28;20031;-87
2021/06/15 01:51:02;;;;;;;3.80;1.70;;;;;;;23.57;44.62;102187.00;4984154;28;20023;-87
2021/06/15 01:53:30;;;;;;;3.72;1.67;;;;;;;23.57;44.86;102187.00;4980893;28;20042;-86
2021/06/15 01:56:03;;;;;;;4.45;1.80;;;;;;;23.54;44.74;102184.44;4961819;28;20026;-87
2021/06/15 01:58:30;;;;;;;6.03;2.03;;;;;;;23.55;44.36;102182.66;4975577;28;20031;-87
2021/06/15 02:00:56;;;;;;;5.38;1.90;;;;;;;23.52;44.53;102174.84;4976483;28;20057;-87
2021/06/15 02:03:23;;;;;;;4.05;1.77;;;;;;;23.52;44.46;102172.22;4958845;28;20058;-87
2021/06/15 02:05:57;;;;;;;5.50;1.70;;;;;;;23.53;44.30;102172.16;4975016;28;20034;-87
2021/06/15 02:08:28;;;;;;;4.60;1.67;;;;;;;23.53;44.10;102172.16;4974981;28;20063;-86
2021/06/15 02:10:56;;;;;;;4.28;1.88;;;;;;;23.53;44.28;102172.16;4988353;28;20077;-89
2021/06/15 02:13:24;;;;;;;3.97;1.73;;;;;;;23.51;44.23;102170.47;4994110;28;20034;-86
2021/06/15 02:15:50;;;;;;;5.03;1.80;;;;;;;23.50;44.11;102172.22;4995042;28;20019;-87
2021/06/15 02:18:21;;;;;;;5.07;1.63;;;;;;;23.49;44.35;102167.84;4995155;28;20022;-87
2021/06/15 02:20:49;;;;;;;4.85;1.80;;;;;;;23.47;44.19;102169.63;4995237;28;20034;-87
2021/06/15 02:23:20;;;;;;;3.85;1.65;;;;;;;23.49;44.20;102165.22;4993328;28;20042;-87
2021/06/15 02:25:50;;;;;;;5.00;1.77;;;;;;;23.46;44.06;102167.03;4995420;28;20022;-87
2021/06/15 02:28:17;;;;;;;5.32;2.08;;;;;;;23.46;43.99;102169.66;4979368;28;20026;-88
2021/06/15 02:30:43;;;;;;;3.47;1.52;;;;;;;23.44;43.93;102161.78;4996113;28;20026;-87
2021/06/15 02:33:12;;;;;;;5.80;1.67;;;;;;;23.46;44.11;102167.91;4978036;28;20393;-88
2021/06/15 02:35:47;;;;;;;5.25;1.70;;;;;;;23.49;43.99;102166.97;4993577;28;20029;-86
2021/06/15 02:38:17;;;;;;;4.43;1.70;;;;;;;23.50;44.18;102174.00;4993393;28;20069;-86
2021/06/15 02:40:43;;;;;;;6.10;1.75;;;;;;;23.48;43.95;102174.00;4993203;28;20034;-86
2021/06/15 02:43:12;;;;;;;3.70;1.40;;;;;;;23.48;44.00;102163.50;4994643;28;20033;-86
2021/06/15 02:45:40;;;;;;;3.88;1.30;;;;;;;23.49;44.12;102164.34;4994356;28;20023;-88
2021/06/15 02:48:07;;;;;;;4.80;1.42;;;;;;;23.47;43.95;102164.38;4993494;28;20496;-87
2021/06/15 02:50:35;;;;;;;5.93;1.50;;;;;;;23.44;43.84;102179.31;4994342;28;20117;-87
2021/06/15 02:53:07;;;;;;;4.18;1.48;;;;;;;23.46;44.11;102172.28;4979215;28;20042;-86
2021/06/15 02:55:39;;;;;;;5.25;1.60;;;;;;;23.46;43.93;102178.41;4993271;28;20081;-86
2021/06/15 02:58:05;;;;;;;3.72;1.23;;;;;;;23.48;43.85;102186.28;4992841;28;20092;-85
2021/06/15 03:00:31;;;;;;;4.15;1.40;;;;;;;23.48;43.96;102192.38;4992975;28;20484;-88
2021/06/15 03:02:57;;;;;;;6.57;1.50;;;;;;;23.46;43.87;102201.19;4993093;28;20030;-86
2021/06/15 03:05:23;;;;;;;2.50;1.27;;;;;;;23.46;43.72;102209.06;4994570;28;20033;-85
2021/06/15 03:07:50;;;;;;;3.70;1.35;;;;;;;23.45;43.64;102208.19;4976874;28;20026;-87
2021/06/15 03:10:17;;;;;;;3.72;1.40;;;;;;;23.43;44.05;102199.47;4992870;28;20157;-86
2021/06/15 03:12:50;;;;;;;3.72;1.42;;;;;;;23.44;43.83;102193.31;4976719;28;20129;-86
2021/06/15 03:15:19;;;;;;;3.28;1.23;;;;;;;23.42;43.64;102197.72;4992886;28;20019;-85
2021/06/15 03:17:59;;;;;;;3.15;1.27;;;;;;;23.40;43.69;102197.72;4995115;28;20473;-86
2021/06/15 03:20:26;;;;;;;4.80;1.40;;;;;;;23.41;43.60;102202.09;4993421;28;20030;-87
2021/06/15 03:23:05;;;;;;;5.88;1.45;;;;;;;23.41;43.64;102196.00;4994061;28;20472;-89
2021/06/15 03:25:33;;;;;;;2.95;1.30;;;;;;;23.39;43.65;102200.41;4992618;28;20037;-85
2021/06/15 03:28:08;;;;;;;3.88;1.30;;;;;;;23.42;43.45;102208.22;4976670;28;20022;-85
2021/06/15 03:30:34;;;;;;;3.70;1.40;;;;;;;23.39;43.37;102210.91;4992737;28;20608;-85
2021/06/15 03:33:08;;;;;;;4.53;1.20;;;;;;;23.38;43.71;102198.63;4960833;28;20041;-86
2021/06/15 03:35:38;;;;;;;3.97;1.20;;;;;;;23.38;43.49;102199.50;4998904;28;20033;-86
2021/06/15 03:38:06;;;;;;;3.88;1.27;;;;;;;23.40;43.45;102207.38;4999259;28;20022;-85
2021/06/15 03:40:36;;;;;;;2.72;0.90;;;;;;;23.39;43.32;102208.28;4996801;28;20049;-85
2021/06/15 03:43:03;;;;;;;3.72;1.30;;;;;;;23.38;43.44;102215.25;4996663;28;20117;-85
2021/06/15 03:45:32;;;;;;;3.55;1.33;;;;;;;23.37;43.34;102221.41;4996564;28;20118;-86
2021/06/15 03:48:01;;;;;;;3.30;1.25;;;;;;;23.38;43.20;102240.66;4996681;28;20105;-86
2021/06/15 03:50:27;;;;;;;4.32;1.35;;;;;;;23.37;43.19;102236.31;4996484;28;20117;-86
2021/06/15 03:52:56;;;;;;;4.30;1.25;;;;;;;23.34;43.39;102234.59;4964322;28;20031;-85
2021/06/15 03:55:25;;;;;;;7.07;1.33;;;;;;;23.34;42.88;102225.81;4996658;28;20049;-86
2021/06/15 03:57:52;;;;;;;6.05;1.50;;;;;;;23.33;43.26;102221.47;4997593;28;20027;-86
2021/06/15 04:00:23;;;;;;;3.78;1.30;;;;;;;23.36;43.40;102224.06;4996589;28;20030;-86
2021/06/15 04:02:53;;;;;;;4.43;1.25;;;;;;;23.34;42.78;102221.47;4996424;28;20034;-85
2021/06/15 04:05:22;;;;;;;5.00;1.45;;;;;;;23.34;43.23;102218.84;4996316;28;20408;-85
2021/06/15 04:07:49;;;;;;;3.70;1.20;;;;;;;23.32;43.19;102220.63;4996391;28;20026;-85
2021/06/15 04:10:16;;;;;;;5.13;1.20;;;;;;;23.34;42.87;102223.19;4980107;28;20054;-87
2021/06/15 04:12:43;;;;;;;3.85;1.25;;;;;;;23.36;42.82;102216.19;4997368;28;20058;-86
2021/06/15 04:15:10;;;;;;;3.88;1.20;;;;;;;23.36;42.98;102224.06;5006130;28;20025;-87
2021/06/15 04:17:39;;;;;;;4.15;1.30;;;;;;;23.35;42.79;102222.34;5013736;28;20018;-86
2021/06/15 04:20:06;;;;;;;4.32;1.30;;;;;;;23.34;42.98;102226.72;5002298;28;20025;-86
2021/06/15 04:22:35;;;;;;;3.05;1.10;;;;;;;23.35;43.06;102224.97;4998998;28;20069;-85
2021/06/15 04:25:10;;;;;;;4.45;1.20;;;;;;;23.35;43.03;102231.06;4996985;28;20030;-85
2021/06/15 04:27:36;;;;;;;5.25;1.35;;;;;;;23.34;42.85;102229.34;4996327;28;20033;-85
2021/06/15 04:30:04;;;;;;;7.53;1.65;;;;;;;23.33;42.95;102224.97;4996117;28;20035;-85
2021/06/15 04:32:51;;;;;;;4.72;1.30;;;;;;;23.35;42.91;102223.19;4997018;28;20037;-86
2021/06/15 04:35:28;;;;;;;7.13;1.30;;;;;;;23.31;42.72;102221.50;4996243;28;20436;-87
2021/06/15 04:37:57;;;;;;;5.38;1.40;;;;;;;23.31;42.64;102225.88;4995947;28;20030;-89
2021/06/15 04:40:28;;;;;;;7.63;1.50;;;;;;;23.31;42.57;102221.50;4995593;28;20027;-85
2021/06/15 04:42:53;;;;;;;3.67;1.42;;;;;;;23.30;42.82;102226.75;4997304;28;20469;-86
2021/06/15 04:45:25;;;;;;;5.43;1.60;;;;;;;23.31;42.24;102228.50;4994883;28;20099;-86
2021/06/15 04:48:08;;;;;;;4.45;1.23;;;;;;;23.30;42.65;102229.38;4996339;28;20454;-87
2021/06/15 04:50:34;;;;;;;4.25;1.33;;;;;;;23.33;42.34;102232.00;4996659;28;20031;-87
2021/06/15 04:53:04;;;;;;;5.55;1.40;;;;;;;23.30;42.40;102232.91;4995652;28;20034;-85
2021/06/15 04:55:35;;;;;;;4.57;1.58;;;;;;;23.30;42.79;102234.63;4995706;28;20480;-86
2021/06/15 04:58:02;;;;;;;3.60;1.15;;;;;;;23.35;42.71;102238.09;4995410;28;20121;-86
2021/06/15 05:00:28;;;;;;;3.05;1.10;;;;;;;23.35;42.48;102238.94;4995991;28;20436;-86
2021/06/15 05:02:55;;;;;;;4.28;1.17;;;;;;;23.35;42.16;102238.09;4996754;28;20401;-87
2021/06/15 05:05:22;;;;;;;4.93;1.45;;;;;;;23.35;42.27;102238.94;4997825;28;20469;-85
2021/06/15 05:07:59;;;;;;;6.28;1.67;;;;;;;23.39;42.08;102243.28;4995294;28;20050;-86
2021/06/15 05:10:28;;;;;;;4.25;1.30;;;;;;;23.40;42.06;102245.00;4996741;28;20042;-87
2021/06/15 05:12:54;;;;;;;5.75;1.70;;;;;;;23.39;42.10;102251.16;4995333;28;20038;-88
2021/06/15 05:15:23;;;;;;;6.18;1.40;;;;;;;23.48;41.83;102251.97;4979415;28;20092;-86
2021/06/15 05:17:51;;;;;;;9.63;3.05;;;;;;;23.49;42.47;102258.94;4995415;28;20030;-87
2021/06/15 05:20:19;;;;;;;10.85;2.90;;;;;;;23.48;42.71;102260.69;4995766;28;20485;-84
2021/06/15 05:23:08;;;;;;;6.85;2.30;;;;;;;23.31;41.90;102268.78;4998385;28;20041;-86
2021/06/15 05:25:33;;;;;;;8.80;2.10;;;;;;;23.19;41.92;102269.78;4995211;28;20037;-87
2021/06/15 05:28:00;;;;;;;10.93;1.88;;;;;;;23.14;41.48;102271.56;4979437;28;20026;-85
2021/06/15 05:30:28;;;;;;;5.80;1.70;;;;;;;23.08;41.02;102274.28;4979661;28;20401;-85
2021/06/15 05:32:53;;;;;;;8.70;1.98;;;;;;;22.96;41.14;102282.22;4996309;28;20473;-86
2021/06/15 05:35:18;;;;;;;7.25;1.77;;;;;;;22.94;41.02;102279.59;4979926;28;20085;-85
2021/06/15 05:37:47;;;;;;;8.70;1.95;;;;;;;22.94;40.85;102284.84;4979174;28;20033;-86
2021/06/15 05:40:14;;;;;;;9.73;1.92;;;;;;;22.93;40.51;102290.13;4979721;28;20461;-89
2021/06/15 05:42:40;;;;;;;7.05;1.98;;;;;;;22.88;40.54;102289.28;4996226;28;20068;-86
2021/06/15 05:45:10;;;;;;;6.18;1.90;;;;;;;22.86;40.42;102299.78;4998686;28;20065;-91
2021/06/15 05:47:37;;;;;;;9.30;1.90;;;;;;;22.86;40.51;102294.56;4999844;28;20014;-89
2021/06/15 05:50:07;;;;;;;11.45;2.50;;;;;;;22.88;40.55;102302.41;4999691;28;20026;-91
2021/06/15 05:52:33;;;;;;;7.35;1.90;;;;;;;22.90;40.47;102300.66;4982320;28;20129;-89
2021/06/15 05:55:00;;;;;;;7.75;1.80;;;;;;;22.99;40.09;102308.44;4995899;28;20034;-92
2021/06/15 05:57:26;;;;;;;8.20;2.10;;;;;;;23.04;40.25;102301.44;4979081;28;20489;-89
2021/06/15 05:59:52;;;;;;;6.50;1.80;;;;;;;23.08;39.85;102305.78;4997021;28;20225;-89
2021/06/15 06:02:18;;;;;;;6.20;1.80;;;;;;;23.05;40.09;102308.44;4979321;28;20557;-89
2021/06/15 06:10:04;;;;;;;7.28;1.95;;;;;;;22.88;40.04;102303.28;4996875;28;20173;-90
2021/06/15 06:12:29;;;;;;;7.20;1.85;;;;;;;23.14;39.25;102305.69;4979444;28;20030;-88
2021/06/15 06:14:55;;;;;;;11.13;2.03;;;;;;;23.32;38.75;102302.03;4978246;28;20121;-89
2021/06/15 06:17:20;;;;;;;7.25;2.00;;;;;;;23.44;38.76;102305.41;4978343;28;20117;-88
2021/06/15 06:19:46;;;;;;;7.47;2.05;;;;;;;23.53;38.07;102318.44;4961989;28;20064;-87
2021/06/15 06:22:14;;;;;;;7.75;1.88;;;;;;;23.58;38.01;102320.16;4994329;28;20018;-89
2021/06/15 06:24:40;;;;;;;8.00;2.10;;;;;;;23.66;37.91;102319.19;4994610;28;20062;-88
2021/06/15 06:27:06;;;;;;;9.15;1.90;;;;;;;23.67;37.62;102316.53;4994956;28;20041;-88
2021/06/15 06:29:31;;;;;;;8.05;2.10;;;;;;;23.72;38.08;102322.59;4963071;28;20142;-89
2021/06/15 06:31:56;;;;;;;6.35;1.65;;;;;;;23.75;38.31;102322.59;4996899;28;20519;-88
2021/06/15 06:34:22;;;;;;;6.57;2.00;;;;;;;23.79;38.24;102326.94;4995175;28;20118;-88
2021/06/15 06:36:47;;;;;;;5.88;1.50;;;;;;;23.83;38.30;102319.88;4997583;28;20037;-87
2021/06/15 06:39:13;;;;;;;9.07;2.00;;;;;;;23.81;38.46;102325.16;5000761;28;20125;-87
2021/06/15 06:41:38;;;;;;;9.23;2.17;;;;;;;23.87;38.42;102329.47;5012099;28;20023;-90
2021/06/15 06:44:04;;;;;;;7.93;1.77;;;;;;;23.87;38.63;102321.59;5003209;28;20366;-88
2021/06/15 06:46:31;;;;;;;7.38;2.00;;;;;;;23.89;39.29;102324.19;5000140;28;20054;-89
2021/06/15 06:48:57;;;;;;;5.47;1.67;;;;;;;23.92;39.49;102322.38;4995998;28;20042;-89
2021/06/15 06:51:23;;;;;;;5.60;1.70;;;;;;;23.94;39.30;102325.88;4979199;28;20089;-88
2021/06/15 06:53:48;;;;;;;5.25;2.00;;;;;;;23.93;39.75;102329.41;4995214;28;20477;-88
2021/06/15 06:56:13;;;;;;;6.50;1.58;;;;;;;23.95;39.84;102332.88;4993932;28;20026;-88
2021/06/15 06:58:40;;;;;;;6.30;1.67;;;;;;;24.01;39.77;102345.94;4993479;28;20109;-85
2021/06/15 07:01:06;;;;;;;4.63;1.75;;;;;;;24.03;39.84;102346.78;4977018;28;20034;-85
2021/06/15 07:03:31;;;;;;;4.05;1.60;;;;;;;24.06;39.87;102345.88;4994487;28;20057;-86
2021/06/15 07:05:57;;;;;;;3.78;1.58;;;;;;;24.08;39.37;102344.09;4993321;28;20056;-86
2021/06/15 07:08:22;;;;;;;4.90;1.20;;;;;;;24.09;39.64;102334.47;4976688;28;20117;-86
2021/06/15 07:10:48;;;;;;;4.63;1.65;;;;;;;24.13;39.54;102333.53;4993063;28;20129;-86
2021/06/15 07:13:13;;;;;;;4.57;1.50;;;;;;;24.15;39.82;102342.25;4977135;28;20076;-87
2021/06/15 07:15:39;;;;;;;6.05;1.65;;;;;;;24.12;39.96;102337.03;4994710;28;20026;-86
2021/06/15 07:18:04;;;;;;;4.90;1.58;;;;;;;24.10;40.16;102342.31;4977084;28;20035;-86
2021/06/15 07:20:31;;;;;;;7.40;1.58;;;;;;;24.11;39.97;102343.19;4993084;28;20037;-86
2021/06/15 07:22:56;;;;;;;6.55;1.48;;;;;;;24.13;40.16;102337.03;4992728;28;20089;-87
2021/06/15 07:25:22;;;;;;;5.75;1.65;;;;;;;24.10;40.16;102337.06;4992985;28;20477;-86
2021/06/15 07:27:47;;;;;;;4.95;1.52;;;;;;;24.14;40.23;102336.13;4992508;28;20022;-85
2021/06/15 07:30:13;;;;;;;4.03;1.60;;;;;;;24.12;40.18;102339.66;4976734;28;20026;-86
2021/06/15 07:32:39;;;;;;;5.47;1.58;;;;;;;24.12;40.15;102337.03;4960546;28;20095;-86
2021/06/15 07:35:05;;;;;;;3.33;1.20;;;;;;;24.10;40.25;102333.56;4992683;28;20113;-86
2021/06/15 07:37:31;;;;;;;5.55;1.48;;;;;;;24.10;40.16;102334.41;4992925;28;20177;-86
2021/06/15 07:39:56;;;;;;;3.70;1.30;;;;;;;24.15;40.42;102339.63;4993067;28;20540;-87
2021/06/15 07:42:23;;;;;;;3.42;1.20;;;;;;;24.17;40.64;102346.63;4992645;28;20023;-86
2021/06/15 07:44:48;;;;;;;5.03;1.30;;;;;;;24.17;40.52;102346.63;4992796;28;20125;-86
2021/06/15 07:47:14;;;;;;;3.53;1.20;;;;;;;24.22;39.75;102350.03;4976309;28;20113;-86
2021/06/15 07:49:39;;;;;;;5.30;1.40;;;;;;;24.25;39.81;102343.00;4976545;28;20031;-85
2021/06/15 07:52:05;;;;;;;4.72;1.67;;;;;;;24.26;40.00;102334.22;4992880;28;20038;-85
2021/06/15 07:54:30;;;;;;;5.40;1.88;;;;;;;24.28;40.42;102341.22;4976426;28;20579;-87
2021/06/15 07:57:00;;;;;;;5.03;1.58;;;;;;;24.31;39.88;102332.41;4993354;28;20023;-88
2021/06/15 07:59:26;;;;;;;6.45;1.60;;;;;;;24.33;39.83;102331.47;4994437;28;20085;-87
2021/06/15 08:01:51;;;;;;;7.95;2.13;;;;;;;24.30;39.88;102342.06;4993178;28;20117;-86
2021/06/15 08:04:17;;;;;;;7.18;1.58;;;;;;;24.33;39.79;102338.50;4993792;28;20389;-85
2021/06/15 08:06:43;;;;;;;11.07;1.42;;;;;;;24.29;39.85;102332.41;4960594;28;20177;-85
2021/06/15 08:09:08;;;;;;;12.82;1.88;;;;;;;24.32;39.29;102327.09;4992286;28;20048;-84
2021/06/15 08:11:34;;;;;;;8.80;1.60;;;;;;;24.31;39.23;102328.00;4992209;28;20054;-84
2021/06/15 08:13:59;;;;;;;6.65;1.73;;;;;;;24.32;38.87;102335.00;4976644;28;20034;-85
2021/06/15 08:16:28;;;;;;;7.53;1.90;;;;;;;24.30;38.77;102325.38;4992368;28;20081;-84
2021/06/15 08:18:53;;;;;;;4.15;1.30;;;;;;;24.34;38.45;102324.44;4993350;28;20029;-89
2021/06/15 08:21:19;;;;;;;10.65;1.60;;;;;;;24.31;38.89;102314.84;4996143;28;20031;-87
2021/06/15 08:23:44;;;;;;;12.57;1.92;;;;;;;24.34;38.52;102314.78;4964957;28;20145;-85
2021/06/15 08:26:12;;;;;;;4.70;1.67;;;;;;;24.33;38.99;102310.44;4980327;28;20040;-86
2021/06/15 08:28:38;;;;;;;8.10;1.60;;;;;;;24.35;38.50;102311.28;4996473;28;20034;-87
2021/06/15 08:31:04;;;;;;;5.80;1.48;;;;;;;24.34;38.56;102311.28;4980988;28;20474;-87
2021/06/15 08:33:33;;;;;;;7.45;1.70;;;;;;;24.31;38.69;102330.63;4980546;28;20027;-88
2021/06/15 08:35:59;;;;;;;8.05;1.70;;;;;;;24.29;38.36;102327.16;4997840;28;20057;-86
2021/06/15 08:38:24;;;;;;;10.25;1.77;;;;;;;24.30;38.39;102339.44;4997090;28;20352;-87
2021/06/15 08:40:51;;;;;;;7.88;1.85;;;;;;;24.28;38.42;102314.91;4996963;28;20057;-88
2021/06/15 08:43:19;;;;;;;5.72;1.75;;;;;;;24.25;38.59;102330.72;5002726;28;20027;-87
2021/06/15 08:45:45;;;;;;;6.43;1.77;;;;;;;24.28;38.88;102332.44;5003487;28;20080;-87
2021/06/15 08:48:11;;;;;;;4.93;1.60;;;;;;;24.31;38.58;102332.41;5003635;28;20026;-88
2021/06/15 08:50:38;;;;;;;9.50;1.98;;;;;;;24.30;38.10;102326.28;4987166;28;20026;-86
2021/06/15 08:53:04;;;;;;;5.53;1.70;;;;;;;24.32;38.32;102329.72;5001613;28;20038;-87
2021/06/15 08:55:35;;;;;;;5.45;1.63;;;;;;;24.32;39.10;102327.09;5000130;28;20030;-89
2021/06/15 08:58:46;;;;;;;7.22;1.70;;;;;;;24.13;37.70;102329.13;4999501;28;20215;-88
2021/06/15 09:01:13;;;;;;;5.88;1.55;;;;;;;23.89;37.37;102335.59;4999038;28;20500;-86
2021/06/15 09:03:39;;;;;;;6.72;1.70;;;;;;;23.88;37.09;102320.69;5003212;28;20038;-85
2021/06/15 09:06:05;;;;;;;6.75;1.50;;;;;;;23.85;36.86;102314.63;5003690;28;20056;-85
2021/06/15 09:08:31;;;;;;;5.55;1.88;;;;;;;23.88;36.56;102320.69;5011915;28;20010;-86
2021/06/15 09:10:57;;;;;;;5.97;1.55;;;;;;;23.88;36.09;102319.81;5013816;28;20047;-87
2021/06/15 09:13:40;;;;;;;6.95;1.75;;;;;;;23.86;36.21;102308.44;4982132;28;20038;-86
2021/06/15 09:16:28;;;;;;;5.70;1.57;;;;;;;23.78;35.91;102309.44;4996087;28;20026;-85
2021/06/15 09:18:57;;;;;;;6.60;1.70;;;;;;;23.74;36.22;102319.97;4999509;28;20032;-86
2021/06/15 09:21:28;;;;;;;8.68;2.05;;;;;;;23.77;35.90;102317.31;4995870;28;20030;-87
2021/06/15 09:24:03;;;;;;;7.03;2.10;;;;;;;23.71;36.27;102322.63;4996613;28;20030;-86
2021/06/15 09:27:03;;;;;;;7.88;1.75;;;;;;;23.75;35.98;102326.94;4997381;28;20034;-88
2021/06/15 09:29:49;;;;;;;9.52;1.85;;;;;;;23.73;35.77;102318.22;4995582;28;20400;-85
2021/06/15 09:32:24;;;;;;;7.22;2.10;;;;;;;23.72;36.16;102314.72;4993998;28;20045;-85
2021/06/15 09:35:02;;;;;;;8.23;2.03;;;;;;;23.72;36.19;102322.59;4995126;28;20076;-86
2021/06/15 09:37:35;;;;;;;7.10;1.85;;;;;;;23.75;35.96;102321.69;4995190;28;20428;-85
2021/06/15 09:40:08;;;;;;;7.60;2.08;;;;;;;23.75;35.80;102319.06;4995333;28;20109;-86
2021/06/15 09:42:34;;;;;;;8.02;2.00;;;;;;;23.67;36.08;102316.53;4996073;28;20364;-86
2021/06/15 09:45:17;;;;;;;10.63;2.28;;;;;;;23.67;36.11;102320.91;4994737;28;20032;-86
2021/06/15 09:47:42;;;;;;;8.82;1.77;;;;;;;23.61;36.36;102319.25;4994691;28;20121;-85
2021/06/15 09:50:08;;;;;;;8.70;2.13;;;;;;;23.64;36.20;102320.97;4994769;28;20062;-85
2021/06/15 09:52:34;;;;;;;8.45;2.28;;;;;;;23.65;36.10;102317.44;4962298;28;20040;-87
2021/06/15 09:55:06;;;;;;;8.73;2.13;;;;;;;23.67;36.22;102313.91;4996251;28;20105;-86
2021/06/15 09:57:34;;;;;;;9.32;2.00;;;;;;;23.68;36.33;102323.53;4997999;28;20041;-86
2021/06/15 10:00:09;;;;;;;6.82;2.00;;;;;;;23.66;36.02;102322.66;4994725;28;20030;-86
2021/06/15 10:02:58;;;;;;;8.98;2.20;;;;;;;23.62;35.84;102320.97;4995866;28;20038;-86
2021/06/15 10:05:35;;;;;;;9.75;2.45;;;;;;;23.62;36.25;102327.09;4994777;28;20031;-87
2021/06/15 10:08:07;;;;;;;10.68;2.40;;;;;;;23.64;36.37;102331.47;4994539;28;20062;-84
2021/06/15 10:10:41;;;;;;;5.97;2.20;;;;;;;23.64;36.56;102328.84;4999032;28;20078;-84
2021/06/15 10:13:11;;;;;;;11.48;2.08;;;;;;;23.56;36.41;102324.56;4995487;28;20103;-84
2021/06/15 10:15:39;;;;;;;9.65;2.20;;;;;;;23.59;36.24;102329.75;4994044;28;20065;-84
2021/06/15 10:18:06;;;;;;;7.53;2.17;;;;;;;23.65;36.40;102330.56;4993857;28;20033;-84
2021/06/15 10:20:33;;;;;;;8.05;2.30;;;;;;;23.62;36.54;102326.22;4962270;28;20397;-84
2021/06/15 10:23:00;;;;;;;10.43;2.17;;;;;;;23.62;36.73;102316.56;4993759;28;20608;-84
2021/06/15 10:25:31;;;;;;;6.70;2.15;;;;;;;23.66;36.44;102306.03;4993901;28;20034;-87
2021/06/15 10:27:57;;;;;;;11.32;2.30;;;;;;;23.69;36.67;102306.00;4993615;28;20026;-83
2021/06/15 10:30:34;;;;;;;6.85;1.88;;;;;;;23.67;36.41;102313.91;4995964;28;20500;-84
2021/06/15 10:33:13;;;;;;;11.70;2.47;;;;;;;23.65;36.75;102301.66;4994923;28;20044;-84
2021/06/15 10:35:47;;;;;;;8.27;2.45;;;;;;;23.65;36.93;102302.56;4995272;28;20029;-85
2021/06/15 10:38:32;;;;;;;6.38;2.47;;;;;;;23.67;36.81;102297.25;4995029;28;20397;-84
2021/06/15 10:41:01;;;;;;;8.43;2.70;;;;;;;23.66;36.89;102306.91;4982950;28;20034;-84
2021/06/15 10:43:30;;;;;;;13.43;3.00;;;;;;;23.64;36.73;102294.69;4994249;28;20483;-85
2021/06/15 10:46:11;;;;;;;10.13;3.22;;;;;;;23.60;36.88;102294.72;4994511;28;20022;-84
2021/06/15 10:48:45;;;;;;;8.93;2.85;;;;;;;23.66;36.84;102301.66;4993640;28;20473;-84
2021/06/15 10:51:23;;;;;;;7.15;2.67;;;;;;;23.68;36.56;102304.28;4993353;28;20030;-83
2021/06/15 10:53:49;;;;;;;10.63;3.30;;;;;;;23.69;36.78;102306.00;4995535;28;20027;-85
2021/06/15 10:56:17;;;;;;;10.00;2.92;;;;;;;23.67;36.71;102300.78;4997054;28;20022;-84
2021/06/15 10:58:55;;;;;;;8.02;2.58;;;;;;;23.68;36.45;102296.38;4993496;28;20030;-84
2021/06/15 11:01:25;;;;;;;8.55;2.95;;;;;;;23.71;36.30;102294.56;4994484;28;20113;-84
2021/06/15 11:04:01;;;;;;;9.98;2.83;;;;;;;23.62;36.16;102286.81;4994674;28;20030;-86
2021/06/15 11:06:29;;;;;;;7.80;2.80;;;;;;;23.56;36.42;102289.50;4994623;28;20026;-86
2021/06/15 11:09:03;;;;;;;6.85;2.38;;;;;;;23.55;36.33;102290.41;4993382;28;20029;-86
2021/06/15 11:11:31;;;;;;;8.43;2.63;;;;;;;23.62;36.14;102287.66;4994455;28;20045;-86
2021/06/15 11:14:12;;;;;;;9.07;2.33;;;;;;;23.74;36.28;102289.28;4993304;28;20034;-81
2021/06/15 11:16:49;;;;;;;6.90;2.15;;;;;;;23.78;36.25;102284.91;4994399;28;20481;-82
2021/06/15 11:19:17;;;;;;;8.93;2.67;;;;;;;23.75;36.00;102287.53;4977184;28;20528;-83
2021/06/15 11:21:59;;;;;;;7.93;2.70;;;;;;;23.69;36.04;102282.34;4994252;28;20026;-83
2021/06/15 11:24:27;;;;;;;8.40;2.20;;;;;;;23.55;36.26;102285.16;4994250;28;20026;-85
2021/06/15 11:26:57;;;;;;;6.07;2.22;;;;;;;23.54;36.12;102281.66;4993166;28;20027;-81
2021/06/15 11:29:38;;;;;;;8.55;2.33;;;;;;;23.61;36.33;102280.69;4993544;28;20041;-82
2021/06/15 11:32:12;;;;;;;7.32;1.95;;;;;;;23.63;36.10;102285.94;4999079;28;20030;-83
2021/06/15 11:34:38;;;;;;;7.78;2.00;;;;;;;23.58;36.10;102277.22;5011353;28;20040;-84
2021/06/15 11:37:18;;;;;;;6.85;1.90;;;;;;;23.52;35.85;102282.56;4996845;28;20054;-83
2021/06/15 11:39:43;;;;;;;10.25;2.53;;;;;;;23.56;35.82;102279.00;5001700;28;20111;-84
2021/06/15 11:42:19;;;;;;;7.55;2.35;;;;;;;23.65;35.47;102276.28;4995611;28;20066;-85
2021/06/15 11:45:01;;;;;;;5.68;1.90;;;;;;;23.70;35.75;102276.22;4993396;28;20038;-84
2021/06/15 11:47:33;;;;;;;10.10;2.30;;;;;;;23.66;35.91;102264.84;4992809;28;20050;-84